Relevés horaires Matro (Suisse)


Relevés horaires à Matro - Dimanche 04 Janv. 2015
Heure UTC1 Température [°C] Vent [km/h] Hum. [%] Pres.4 [hPa] Visi. [Km] Nébu. [octa] Préc.5 [mm] Cond.
2m. Res. Ros. Dir.2 Vit. Moy. Raf.3
23:00 -6.9 -15.2 -15.7 NNO 27.8 31.5 46.3 49 850(1.1/3h) -- -- -- --
22:00 -7.0 -15 -15.4 NNO 25.9 31.5 44.4 51 850(1.3/3h) -- -- -- --
21:00 -6.9 -15.9 -15.7 NO 33.3 44.4 66.7 49 850(1.2/3h) -- -- -- --
20:00 -7.0 -15.8 -15.1 NNO 31.5 42.6 64.8 52 850(0.9/3h) -- -- -- --
19:00 -6.7 -16.8 -15.2 NO 44.4 44.4 66.7 51 850(0.6/3h) -- -- -- --
18:00 -6.8 -16.7 -14.6 NNO 42.6 57.4 88.9 54 850(0.5/3h) -- -- -- --
17:00 -6.7 -16 -14.7 NO 37.0 40.7 61.1 53 850(0.8/3h) -- -- -- --
16:00 -6.8 -16.9 -15.8 NO 44.4 50.0 74.1 49 850(0.9/3h) -- -- -- --
15:00 -5.9 -15.4 -18.9 NO 40.7 57.4 88.9 35 850(0.1/3h) -- -- -- --
14:00 -5.3 -15.4 -19.7 NO 50.0 57.4 88.9 31 850(-0.4/3h) -- -- -- --
13:00 -5.2 -15.7 -18.0 NO 55.6 55.6 85.2 36 850(-0.5/3h) -- -- -- --
12:00 -4.9 -14.5 -16.9 NO 46.3 53.7 75.9 38 850(1.2/3h) -- -- -- --
11:00 -4.3 -13 -14.4 NO 38.9 38.9 57.4 45 850(2.1/3h) -- -- -- --
10:00 -3.6 -11.7 -12.6 NO 35.2 51.9 75.9 50 850(2.4/3h) -- -- -- --
09:00 -3.6 -12.9 -8.4 NNO 48.2 53.7 74.1 69 850(1.6/3h) -- -- -- --
08:00 -3.2 -12.4 -5.7 NNO 48.2 48.2 70.4 83 850(1.8/3h) -- -- -- --
07:00 -2.5 -10.8 -3.3 NNO 40.7 40.7 53.7 94 850(1.3/3h) -- -- -- --
06:00 -2.2 -8.9 -2.5 NNO 25.9 48.2 68.5 98 850(0.9/3h) -- -- -- --
05:00 -1.5 -7.7 -2.4 NO 24.1 38.9 57.4 94 850(-0.1/3h) -- -- -- --
04:00 -0.8 -7.5 -4.0 NO 29.6 44.4 57.4 79 850(-0.5/3h) -- -- -- --
03:00 -1.3 -7.9 -2.4 ONO 27.8 48.2 68.5 92 850(-0.5/3h) -- -- -- --
02:00 -0.6 -8.6 -3.3 ONO 44.4 44.4 66.7 82 850(-0.6/3h) -- -- -- --
01:00 -0.8 -7.7 -1.2 NO 31.5 44.4 68.5 97 850(-0.3/3h) -- -- -- --
00:00 -0.6 -8.6 -1.1 O 44.4 48.2 68.5 96 850(-0.6/3h) -- -- -- --

1 Coordinated Universal Time. Actuellement il est 14:00 locale et 12:00 UTC.

2 Le vent souffle depuis la direction indiquée vers la direction oposée.

3 Les rafales max. sont disponible 40 min après l'heure du relevé.

4 Pour les stations d'altitude (plus de 600m) le géopotentiel du niveau le plus proche de la pression obligatoire est indiqué.

5 Les stations disposant d'un diffuseur peuvent indiquer "trace". Cela signifie que des précipitations ont touchés le sol mais que la quantité est inférieure à 0.1 mm.

Copyright

Les données affichées sur cette page sont la propriété exclusive de Météo Suisse.

Récapitulatif de la journée
Température [°C] Vent [km/h] Ensoleillement4 [h] Precipitations totale5 [mm] Pression [Hpa]
Min1 Max.2 Moy.3 Max. Min Max.
-1.7 -1.8 46.5 88.9 6 h 48 min 0 850.0 850.0

1 Température minimale relevée entre 18:00 UTC la veille et 18:00 UTC le jour donné.

2 Température maximale relevée entre 06:00 UTC le jour donné et 06:00 UTC le lendemain.

3 Vent moyen de la journée basé sur les relevés horaires.

4 Ensoleillement en heures relevé entre 06:00 UTC la veille et 06:00 UTC le jour donné.

5 Précipitations totales tombées entre 06:00 UTC la jour donné et 06:00 UTC le lendemain.

Graphiques horaires